createdAt,value
2022-08-22T00:02:27.434Z,3.72
2022-08-22T00:02:58.169Z,5.68
2022-08-22T00:05:03.656Z,5.65
2022-08-22T00:07:41.976Z,4.72
2022-08-22T00:10:24.989Z,6.68
2022-08-22T00:13:04.339Z,4.03
2022-08-22T00:15:42.860Z,4.93
2022-08-22T00:18:19.445Z,7.13
2022-08-22T00:20:50.496Z,5.72
2022-08-22T00:23:24.132Z,6.07
2022-08-22T00:25:57.295Z,4.38
2022-08-22T00:28:32.330Z,4.20
2022-08-22T00:31:08.444Z,4.13
2022-08-22T00:33:42.546Z,6.35
2022-08-22T00:36:25.366Z,4.03
2022-08-22T00:39:01.683Z,5.22
2022-08-22T00:41:53.718Z,4.47
2022-08-22T00:44:41.857Z,4.55
2022-08-22T00:47:25.750Z,4.80
2022-08-22T00:50:08.709Z,4.43
2022-08-22T00:53:00.728Z,3.92
2022-08-22T00:55:42.205Z,5.60
2022-08-22T00:58:33.472Z,3.33
2022-08-22T01:01:06.823Z,5.85
2022-08-22T01:04:08.113Z,6.07
2022-08-22T01:06:43.602Z,4.97
2022-08-22T01:09:23.804Z,7.70
2022-08-22T01:12:11.865Z,4.30
2022-08-22T01:14:49.033Z,5.28
2022-08-22T01:18:06.809Z,3.33
2022-08-22T01:21:13.523Z,4.03
2022-08-22T01:24:09.229Z,3.83
2022-08-22T01:27:04.822Z,4.65
2022-08-22T01:30:11.240Z,7.60
2022-08-22T01:33:32.594Z,3.80
2022-08-22T01:36:31.025Z,4.97
2022-08-22T01:39:37.265Z,5.50
2022-08-22T01:42:28.440Z,3.92
2022-08-22T01:45:19.590Z,5.85
2022-08-22T01:47:54.524Z,3.88
2022-08-22T01:50:26.643Z,5.35
2022-08-22T01:53:04.782Z,5.00
2022-08-22T01:55:36.188Z,4.88
2022-08-22T01:58:16.726Z,7.15
2022-08-22T02:01:17.596Z,4.93
2022-08-22T02:04:00.326Z,4.72
2022-08-22T02:06:39.519Z,5.63
2022-08-22T02:09:13.834Z,5.03
2022-08-22T02:11:52.047Z,4.07
2022-08-22T02:14:30.607Z,3.17
2022-08-22T02:17:12.155Z,3.88
2022-08-22T02:19:50.804Z,5.57
2022-08-22T02:22:30.521Z,4.82
2022-08-22T02:25:09.804Z,4.25
2022-08-22T02:27:48.242Z,5.50
2022-08-22T02:30:20.092Z,5.40
2022-08-22T02:32:59.308Z,2.70
2022-08-22T02:35:32.462Z,5.45
2022-08-22T02:38:22.452Z,4.45
2022-08-22T02:41:02.726Z,6.07
2022-08-22T02:43:40.886Z,3.47
2022-08-22T02:46:19.976Z,2.60
2022-08-22T02:48:57.276Z,4.60
2022-08-22T02:51:33.145Z,5.22
2022-08-22T02:54:14.493Z,4.38
2022-08-22T02:56:53.497Z,4.32
2022-08-22T02:59:33.614Z,4.18
2022-08-22T03:02:30.702Z,4.30
2022-08-22T03:05:01.857Z,3.40
2022-08-22T03:07:40.328Z,4.03
2022-08-22T03:10:18.149Z,4.05
2022-08-22T03:12:58.418Z,4.22
2022-08-22T03:15:34.072Z,4.80
2022-08-22T03:18:06.482Z,5.03
2022-08-22T03:20:43.587Z,3.63
2022-08-22T03:23:23.614Z,4.30
2022-08-22T03:25:57.451Z,5.57
2022-08-22T03:28:32.462Z,3.75
2022-08-22T03:31:08.864Z,2.15
2022-08-22T03:33:36.720Z,3.22
2022-08-22T03:36:11.194Z,3.58
2022-08-22T03:38:52.913Z,2.80
2022-08-22T03:41:46.863Z,6.53
2022-08-22T03:44:39.847Z,8.95
2022-08-22T03:47:31.739Z,5.30
2022-08-22T03:50:20.239Z,6.95
2022-08-22T03:53:23.152Z,6.65
2022-08-22T03:56:20.595Z,3.65
2022-08-22T03:59:24.257Z,8.88
2022-08-22T04:02:43.501Z,7.13
2022-08-22T04:05:45.578Z,4.85
2022-08-22T04:09:00.072Z,4.75
2022-08-22T04:11:50.732Z,4.20
2022-08-22T04:14:37.287Z,4.28
2022-08-22T04:17:41.761Z,4.32
2022-08-22T04:20:27.931Z,4.95
2022-08-22T04:23:36.719Z,4.38
2022-08-22T04:26:16.440Z,3.63
2022-08-22T04:28:49.254Z,5.07
2022-08-22T04:31:23.431Z,5.35
2022-08-22T04:33:58.412Z,5.45
2022-08-22T04:36:30.732Z,5.75
2022-08-22T04:39:06.551Z,2.63
2022-08-22T04:41:46.572Z,5.22
2022-08-22T04:44:19.824Z,4.13
2022-08-22T04:46:57.235Z,5.20
2022-08-22T04:49:33.923Z,7.03
2022-08-22T04:52:16.624Z,6.70
2022-08-22T04:54:58.465Z,4.45
2022-08-22T04:57:36.855Z,6.18
2022-08-22T05:00:09.010Z,4.65
2022-08-22T05:02:42.331Z,4.38
2022-08-22T05:05:20.958Z,5.10
2022-08-22T05:07:51.641Z,3.95
2022-08-22T05:10:25.963Z,5.53
2022-08-22T05:13:00.442Z,7.07
2022-08-22T05:15:32.455Z,4.20
2022-08-22T05:18:07.477Z,7.05
2022-08-22T05:20:37.306Z,5.07
2022-08-22T05:23:17.427Z,5.15
2022-08-22T05:25:48.055Z,4.13
2022-08-22T05:28:31.315Z,9.82
2022-08-22T05:30:59.785Z,8.07
2022-08-22T05:33:32.462Z,5.97
2022-08-22T05:36:05.562Z,4.50
2022-08-22T05:38:38.403Z,8.23
2022-08-22T05:41:10.135Z,7.22
2022-08-22T05:43:40.127Z,6.53
2022-08-22T05:46:13.609Z,7.85
2022-08-22T05:48:47.987Z,5.57
2022-08-22T05:51:21.583Z,6.32
2022-08-22T05:53:57.143Z,6.28
2022-08-22T05:56:36.224Z,8.55
2022-08-22T05:59:13.047Z,7.35
2022-08-22T06:01:51.940Z,7.75
2022-08-22T06:04:29.011Z,6.35
2022-08-22T06:07:00.585Z,6.82
2022-08-22T06:09:34.868Z,6.68
2022-08-22T06:12:18.161Z,7.07
2022-08-22T06:15:00.999Z,6.85
2022-08-22T06:17:35.908Z,5.80
2022-08-22T06:20:09.137Z,8.77
2022-08-22T06:22:42.175Z,7.10
2022-08-22T06:25:14.732Z,7.63
2022-08-22T06:27:44.430Z,12.75
2022-08-22T06:30:16.292Z,10.95
2022-08-22T06:32:59.238Z,15.27
2022-08-22T06:35:54.694Z,15.38
2022-08-22T06:38:28.434Z,14.52
2022-08-22T06:41:00.472Z,14.63
2022-08-22T06:43:38.549Z,15.23
2022-08-22T06:46:07.260Z,13.20
2022-08-22T06:48:37.191Z,9.75
2022-08-22T06:51:08.647Z,11.88
2022-08-22T06:53:47.632Z,12.35
2022-08-22T06:56:22.261Z,15.13
2022-08-22T06:58:53.574Z,13.77
2022-08-22T07:01:24.089Z,12.00
2022-08-22T07:03:54.914Z,13.52
2022-08-22T07:06:30.866Z,10.23
2022-08-22T07:08:59.341Z,11.90
2022-08-22T07:11:38.563Z,13.05
2022-08-22T07:14:11.531Z,11.73
2022-08-22T07:16:43.702Z,9.30
2022-08-22T07:19:23.691Z,11.35
2022-08-22T07:21:53.422Z,8.00
2022-08-22T07:24:25.774Z,8.95
2022-08-22T07:27:08.965Z,11.40
2022-08-22T07:29:47.756Z,10.73
2022-08-22T07:32:20.375Z,10.60
2022-08-22T07:35:01.887Z,11.43
2022-08-22T07:37:48.187Z,11.98
2022-08-22T07:40:24.729Z,11.18
2022-08-22T07:42:59.707Z,10.73
2022-08-22T07:45:35.915Z,8.52
2022-08-22T07:48:25.383Z,7.93
2022-08-22T07:51:02.044Z,7.68
2022-08-22T07:53:41.253Z,8.07
2022-08-22T07:56:14.261Z,6.35
2022-08-22T07:58:45.434Z,12.82
2022-08-22T08:01:21.833Z,12.25
2022-08-22T08:03:54.567Z,6.38
2022-08-22T08:06:24.917Z,6.82
2022-08-22T08:08:55.810Z,6.10
2022-08-22T08:11:26.962Z,10.57
2022-08-22T08:14:00.587Z,6.80
2022-08-22T08:16:32.238Z,6.43
2022-08-22T08:19:01.966Z,5.40
2022-08-22T08:21:36.140Z,7.55
2022-08-22T08:24:09.098Z,5.22
2022-08-22T08:27:02.127Z,6.82
2022-08-22T08:29:30.079Z,6.88
2022-08-22T08:31:59.300Z,3.05
2022-08-22T08:34:29.029Z,5.85
2022-08-22T08:37:02.178Z,5.50
2022-08-22T08:39:36.210Z,3.40
2022-08-22T08:42:54.022Z,4.70
2022-08-22T08:45:37.430Z,4.40
2022-08-22T08:48:18.227Z,4.32
2022-08-22T08:51:02.121Z,3.42
2022-08-22T08:53:46.553Z,4.75
2022-08-22T08:56:25.657Z,3.35
2022-08-22T08:59:10.075Z,3.08
2022-08-22T09:02:20.366Z,5.95
2022-08-22T09:05:19.855Z,3.53
2022-08-22T09:08:05.496Z,3.60
2022-08-22T09:11:04.778Z,3.90
2022-08-22T09:13:56.563Z,3.65
2022-08-22T09:16:59.056Z,5.00
2022-08-22T09:19:57.549Z,2.90
2022-08-22T09:23:04.307Z,3.70
2022-08-22T09:25:43.919Z,4.15
2022-08-22T09:28:17.427Z,3.58
2022-08-22T09:31:22.732Z,3.90
2022-08-22T09:34:05.205Z,4.38
2022-08-22T09:36:43.587Z,2.60
2022-08-22T09:39:17.927Z,2.67
2022-08-22T09:41:54.149Z,4.10
2022-08-22T09:44:34.314Z,2.97
2022-08-22T09:47:24.483Z,5.75
2022-08-22T09:50:04.870Z,4.07
2022-08-22T09:52:57.893Z,2.50
2022-08-22T09:55:45.184Z,3.00
2022-08-22T09:58:25.954Z,3.78
2022-08-22T10:01:00.674Z,2.83
2022-08-22T10:03:53.592Z,4.43
2022-08-22T10:06:25.978Z,4.03
2022-08-22T10:09:03.351Z,4.22
2022-08-22T10:11:38.920Z,4.10
2022-08-22T10:14:22.183Z,3.13
2022-08-22T10:17:03.513Z,4.47
2022-08-22T10:19:39.064Z,2.72
2022-08-22T10:22:20.317Z,3.90
2022-08-22T10:24:59.939Z,5.15
2022-08-22T10:27:43.691Z,5.30
2022-08-22T10:30:18.385Z,2.08
2022-08-22T10:32:53.486Z,3.63
2022-08-22T10:35:29.340Z,3.95
2022-08-22T10:38:07.112Z,3.17
2022-08-22T10:40:43.123Z,4.70
2022-08-22T10:43:15.639Z,4.68
2022-08-22T10:45:47.730Z,3.78
2022-08-22T10:48:35.615Z,3.28
2022-08-22T10:51:19.739Z,5.15
2022-08-22T10:54:02.350Z,3.65
2022-08-22T10:56:35.463Z,6.90
2022-08-22T10:59:16.259Z,4.85
2022-08-22T11:01:51.498Z,3.55
2022-08-22T11:04:35.513Z,4.57
2022-08-22T11:07:18.671Z,4.18
2022-08-22T11:09:57.651Z,6.10
2022-08-22T11:12:34.650Z,5.07
2022-08-22T11:15:12.955Z,3.28
2022-08-22T11:18:16.680Z,3.60
2022-08-22T11:20:56.535Z,3.38
2022-08-22T11:23:38.838Z,4.28
2022-08-22T11:26:30.125Z,3.15
2022-08-22T11:29:24.146Z,5.13
2022-08-22T11:32:06.125Z,5.78
2022-08-22T11:34:50.161Z,2.33
2022-08-22T11:37:42.171Z,3.88
2022-08-22T11:40:29.046Z,3.25
2022-08-22T11:43:03.746Z,2.97
2022-08-22T11:45:40.373Z,4.03
2022-08-22T11:48:19.881Z,4.50
2022-08-22T11:50:52.154Z,5.65
2022-08-22T11:53:32.871Z,4.22
2022-08-22T11:56:16.205Z,3.30
2022-08-22T11:58:53.384Z,5.78
2022-08-22T12:01:34.378Z,5.65
2022-08-22T12:04:10.743Z,3.47
2022-08-22T12:06:56.123Z,3.47
2022-08-22T12:09:40.392Z,6.03
2022-08-22T12:12:34.909Z,3.25
2022-08-22T12:15:12.614Z,3.60
2022-08-22T12:18:20.019Z,2.10
2022-08-22T12:21:17.402Z,4.28
2022-08-22T12:23:57.152Z,3.03
2022-08-22T12:26:34.415Z,2.95
2022-08-22T12:29:19.126Z,3.03
2022-08-22T12:32:28.348Z,3.28
2022-08-22T12:35:14.609Z,4.75
2022-08-22T12:37:52.760Z,5.75
2022-08-22T12:40:34.778Z,5.55
2022-08-22T12:43:29.349Z,7.35
2022-08-22T12:46:16.287Z,6.72
2022-08-22T12:49:00.340Z,7.18
2022-08-22T12:51:44.759Z,5.05
2022-08-22T12:54:45.893Z,5.55
2022-08-22T12:57:25.082Z,5.57
2022-08-22T12:59:58.133Z,4.43
2022-08-22T13:02:32.022Z,4.30
2022-08-22T13:05:09.137Z,5.15
2022-08-22T13:07:38.567Z,6.65
2022-08-22T13:10:33.100Z,10.48
2022-08-22T13:13:11.804Z,4.38
2022-08-22T13:15:53.675Z,4.82
2022-08-22T13:18:31.258Z,5.43
2022-08-22T13:21:03.642Z,3.13
2022-08-22T13:23:39.777Z,5.68
2022-08-22T13:26:16.328Z,6.05
2022-08-22T13:31:59.171Z,8.20
2022-08-22T13:34:40.080Z,5.22
2022-08-22T13:37:15.799Z,5.65
2022-08-22T13:39:46.823Z,4.43
2022-08-22T13:42:30.603Z,4.13
2022-08-22T13:45:04.868Z,4.35
2022-08-22T13:47:39.885Z,4.65
2022-08-22T13:50:19.074Z,2.95
2022-08-22T13:52:55.178Z,6.97
2022-08-22T13:55:34.037Z,7.47
2022-08-22T13:58:11.116Z,4.65
2022-08-22T14:01:28.370Z,7.18
2022-08-22T14:04:00.849Z,3.38
2022-08-22T14:06:41.360Z,4.55
2022-08-22T14:09:31.864Z,4.68
2022-08-22T14:12:12.185Z,4.60
2022-08-22T14:14:43.170Z,4.57
2022-08-22T14:17:19.503Z,3.97
2022-08-22T14:19:59.586Z,3.83
2022-08-22T14:22:35.097Z,3.40
2022-08-22T14:25:07.219Z,2.80
2022-08-22T14:27:39.873Z,3.63
2022-08-22T14:30:16.280Z,6.18
2022-08-22T14:32:50.562Z,4.82
2022-08-22T14:35:34.958Z,2.90
2022-08-22T14:38:27.274Z,4.32
2022-08-22T14:41:03.406Z,6.65
2022-08-22T14:43:49.271Z,4.15
2022-08-22T14:46:26.435Z,5.18
2022-08-22T14:49:24.785Z,4.28
2022-08-22T14:52:00.507Z,5.20
2022-08-22T14:54:31.078Z,3.63
2022-08-22T14:57:00.910Z,4.20
2022-08-22T14:59:41.208Z,5.28
2022-08-22T15:02:17.112Z,3.92
2022-08-22T15:04:52.616Z,3.83
2022-08-22T15:07:36.034Z,2.95
2022-08-22T15:10:20.768Z,3.60
2022-08-22T15:12:53.752Z,3.92
2022-08-22T15:15:33.548Z,3.83
2022-08-22T15:18:20.122Z,2.15
2022-08-22T15:20:52.086Z,2.67
2022-08-22T15:23:22.956Z,2.95
2022-08-22T15:26:01.689Z,2.72
2022-08-22T15:28:49.719Z,3.85
2022-08-22T15:31:21.595Z,2.85
2022-08-22T15:33:51.235Z,4.30
2022-08-22T15:36:22.549Z,3.15
2022-08-22T15:38:53.858Z,3.83
2022-08-22T15:41:46.125Z,4.53
2022-08-22T15:44:32.463Z,3.13
2022-08-22T15:47:10.803Z,5.57
2022-08-22T15:49:50.409Z,3.20
2022-08-22T15:52:25.837Z,2.97
2022-08-22T15:55:21.191Z,3.38
2022-08-22T15:58:00.036Z,8.00
2022-08-22T16:00:34.299Z,4.15
2022-08-22T16:03:06.978Z,2.42
2022-08-22T16:05:50.771Z,4.60
2022-08-22T16:08:26.638Z,6.07
2022-08-22T16:11:17.947Z,2.15
2022-08-22T16:13:48.148Z,3.47
2022-08-22T16:16:57.818Z,2.70
2022-08-22T16:19:27.239Z,4.95
2022-08-22T16:22:12.631Z,4.32
2022-08-22T16:25:04.124Z,3.25
2022-08-22T16:27:32.821Z,3.83
2022-08-22T16:30:09.322Z,2.65
2022-08-22T16:35:13.588Z,3.58
2022-08-22T16:37:48.473Z,3.53
2022-08-22T16:40:27.076Z,4.45
2022-08-22T16:43:16.282Z,5.88
2022-08-22T16:45:48.532Z,7.13
2022-08-22T16:48:36.387Z,5.72
2022-08-22T16:51:18.428Z,3.10
2022-08-22T16:54:34.373Z,8.65
2022-08-22T16:57:15.130Z,7.13
2022-08-22T17:00:02.139Z,5.25
2022-08-22T17:02:55.687Z,4.18
2022-08-22T17:05:40.547Z,3.03
2022-08-22T17:08:30.885Z,4.45
2022-08-22T17:11:12.240Z,4.72
2022-08-22T17:14:01.444Z,3.63
2022-08-22T17:16:50.889Z,4.90
2022-08-22T17:19:36.316Z,5.97
2022-08-22T17:22:11.939Z,5.18
2022-08-22T17:24:47.046Z,5.60
2022-08-22T17:27:24.362Z,3.53
2022-08-22T17:30:02.292Z,3.30
2022-08-22T17:32:41.592Z,4.85
2022-08-22T17:35:21.967Z,7.30
2022-08-22T17:38:01.878Z,5.32
2022-08-22T17:40:42.854Z,5.50
2022-08-22T17:43:39.973Z,4.63
2022-08-22T17:46:31.317Z,3.72
2022-08-22T17:49:09.868Z,5.68
2022-08-22T17:51:47.212Z,10.18
2022-08-22T17:54:21.638Z,4.28
2022-08-22T17:57:05.194Z,2.38
2022-08-22T17:59:40.680Z,5.28
2022-08-22T18:02:16.232Z,4.30
2022-08-22T18:04:52.305Z,4.25
2022-08-22T18:07:32.216Z,3.25
2022-08-22T18:10:05.007Z,3.80
2022-08-22T18:12:41.006Z,3.38
2022-08-22T18:15:19.662Z,2.15
2022-08-22T18:17:54.189Z,3.70
2022-08-22T18:20:27.100Z,4.97
2022-08-22T18:23:01.939Z,3.53
2022-08-22T18:25:42.428Z,4.30
2022-08-22T18:28:22.656Z,3.88
2022-08-22T18:30:57.355Z,2.65
2022-08-22T18:33:32.793Z,3.30
2022-08-22T18:36:10.472Z,5.03
2022-08-22T18:38:50.942Z,3.85
2022-08-22T18:41:27.427Z,5.47
2022-08-22T18:43:56.756Z,3.20
2022-08-22T18:46:39.666Z,4.22
2022-08-22T18:49:16.027Z,3.60
2022-08-22T18:51:44.360Z,3.97
2022-08-22T18:54:37.116Z,5.28
2022-08-22T18:57:26.415Z,3.83
2022-08-22T19:00:09.475Z,7.70
2022-08-22T19:03:03.634Z,5.63
2022-08-22T19:05:47.462Z,3.72
2022-08-22T19:08:54.227Z,6.72
2022-08-22T19:11:42.068Z,4.80
2022-08-22T19:14:41.667Z,5.88
2022-08-22T19:17:33.141Z,4.15
2022-08-22T19:20:22.446Z,3.90
2022-08-22T19:22:53.103Z,4.57
2022-08-22T19:25:26.615Z,4.10
2022-08-22T19:28:25.240Z,4.18
2022-08-22T19:31:16.560Z,4.88
2022-08-22T19:33:49.588Z,5.28
2022-08-22T19:36:32.455Z,4.13
2022-08-22T19:39:03.690Z,6.63
2022-08-22T19:41:57.048Z,5.43
2022-08-22T19:44:51.139Z,4.72
2022-08-22T19:47:32.722Z,6.05
2022-08-22T19:50:05.412Z,5.72
2022-08-22T19:52:48.059Z,4.72
2022-08-22T19:55:23.727Z,3.38
2022-08-22T19:58:00.434Z,4.22
2022-08-22T20:00:52.803Z,6.18
2022-08-22T20:03:32.989Z,3.10
2022-08-22T20:06:22.073Z,7.20
2022-08-22T20:09:09.351Z,7.80
2022-08-22T20:11:45.449Z,3.67
2022-08-22T20:14:26.564Z,3.63
2022-08-22T20:17:10.323Z,5.15
2022-08-22T20:20:16.376Z,3.20
2022-08-22T20:22:37.064Z,7.15
2022-08-22T20:25:20.705Z,7.45
2022-08-22T20:28:03.907Z,6.47
2022-08-22T20:30:38.782Z,4.80
2022-08-22T20:33:10.666Z,5.38
2022-08-22T20:35:43.049Z,7.35
2022-08-22T20:38:18.479Z,4.60
2022-08-22T20:41:00.611Z,3.72
2022-08-22T20:43:35.214Z,4.47
2022-08-22T20:46:13.006Z,4.72
2022-08-22T20:48:44.545Z,5.22
2022-08-22T20:51:16.537Z,3.58
2022-08-22T20:53:52.592Z,3.83
2022-08-22T20:56:33.943Z,5.88
2022-08-22T20:59:13.583Z,3.42
2022-08-22T21:01:41.722Z,5.30
2022-08-22T21:04:11.596Z,5.03
2022-08-22T21:06:39.403Z,5.32
2022-08-22T21:09:45.655Z,5.22
2022-08-22T21:12:14.239Z,4.80
2022-08-22T21:14:46.180Z,3.42
2022-08-22T21:17:19.475Z,5.63
2022-08-22T21:19:48.923Z,3.40
2022-08-22T21:22:19.126Z,5.57
2022-08-22T21:24:47.192Z,4.47
2022-08-22T21:27:21.919Z,3.70
2022-08-22T21:29:49.838Z,4.07
2022-08-22T21:32:33.018Z,6.90
2022-08-22T21:35:04.143Z,6.07
2022-08-22T21:37:39.742Z,5.25
2022-08-22T21:40:16.925Z,6.53
2022-08-22T21:42:47.244Z,3.63
2022-08-22T21:45:28.403Z,6.00
2022-08-22T21:47:56.382Z,6.10
2022-08-22T21:50:34.706Z,5.40
2022-08-22T21:53:10.245Z,7.00
2022-08-22T21:55:42.882Z,5.82
2022-08-22T21:58:37.003Z,4.88
2022-08-22T22:01:28.840Z,4.65
2022-08-22T22:03:58.319Z,6.55
2022-08-22T22:06:28.496Z,4.47
2022-08-22T22:08:56.744Z,3.92
2022-08-22T22:11:24.598Z,5.25
2022-08-22T22:13:52.582Z,5.72
2022-08-22T22:16:25.960Z,6.22
2022-08-22T22:18:53.817Z,5.25
2022-08-22T22:21:22.054Z,7.00
2022-08-22T22:23:52.431Z,8.75
2022-08-22T22:26:20.968Z,7.82
2022-08-22T22:28:50.338Z,5.57
2022-08-22T22:31:19.626Z,4.88
2022-08-22T22:33:47.479Z,4.85
2022-08-22T22:36:19.318Z,4.47
2022-08-22T22:38:47.831Z,5.82
2022-08-22T22:41:17.013Z,4.07
2022-08-22T22:43:44.782Z,6.43
2022-08-22T22:46:12.591Z,4.88
2022-08-22T22:48:40.360Z,5.30
2022-08-22T22:51:09.884Z,4.78
2022-08-22T22:53:42.541Z,8.40
2022-08-22T22:56:13.305Z,4.28
2022-08-22T22:58:42.625Z,4.65
2022-08-22T23:01:11.759Z,5.00
2022-08-22T23:03:39.670Z,7.18
2022-08-22T23:06:12.161Z,4.28
2022-08-22T23:08:39.975Z,6.72
2022-08-22T23:11:10.958Z,7.03
2022-08-22T23:13:39.633Z,8.23
2022-08-22T23:16:12.819Z,7.20
2022-08-22T23:18:40.921Z,3.78
2022-08-22T23:21:13.372Z,4.97
2022-08-22T23:23:41.323Z,5.35
2022-08-22T23:26:09.801Z,5.70
2022-08-22T23:28:37.812Z,4.05
2022-08-22T23:31:19.048Z,5.90
2022-08-22T23:33:47.399Z,4.55
2022-08-22T23:36:17.198Z,6.60
2022-08-22T23:38:45.444Z,6.15
2022-08-22T23:41:15.234Z,5.28
2022-08-22T23:43:44.904Z,5.18
2022-08-22T23:46:13.773Z,5.22
2022-08-22T23:48:43.511Z,5.35
2022-08-22T23:51:12.527Z,7.38
2022-08-22T23:53:40.887Z,5.55
2022-08-22T23:56:19.449Z,6.45
2022-08-22T23:58:49.304Z,6.38
